sensor_id;sensor_type;location;lat;lon;timestamp;temperature;humidity
62555;DHT22;48610;52.144;8.624;2023-08-06T05:59:23;16.00;99.90
62555;DHT22;48610;52.144;8.624;2023-08-06T06:02:24;16.20;99.90
62555;DHT22;48610;52.144;8.624;2023-08-06T06:05:24;16.30;99.90
62555;DHT22;48610;52.144;8.624;2023-08-06T06:08:25;16.20;99.90
62555;DHT22;48610;52.144;8.624;2023-08-06T06:11:25;16.30;99.90
62555;DHT22;48610;52.144;8.624;2023-08-06T06:14:26;16.30;99.90
62555;DHT22;48610;52.144;8.624;2023-08-06T06:17:27;16.30;99.90
62555;DHT22;48610;52.144;8.624;2023-08-06T06:20:28;16.50;99.90
62555;DHT22;48610;52.144;8.624;2023-08-06T06:23:28;16.50;99.90
62555;DHT22;48610;52.144;8.624;2023-08-06T06:26:30;16.50;99.90
62555;DHT22;48610;52.144;8.624;2023-08-06T06:29:30;16.50;99.90
62555;DHT22;48610;52.144;8.624;2023-08-06T06:32:31;16.60;99.90
62555;DHT22;48610;52.144;8.624;2023-08-06T06:35:31;16.70;99.90
62555;DHT22;48610;52.144;8.624;2023-08-06T06:38:32;16.80;99.90
62555;DHT22;48610;52.144;8.624;2023-08-06T06:41:32;16.80;99.90
62555;DHT22;48610;52.144;8.624;2023-08-06T06:44:33;16.90;99.90
62555;DHT22;48610;52.144;8.624;2023-08-06T06:47:34;17.00;99.90
62555;DHT22;48610;52.144;8.624;2023-08-06T06:50:35;16.80;99.90
62555;DHT22;48610;52.144;8.624;2023-08-06T06:53:36;17.00;99.90
62555;DHT22;48610;52.144;8.624;2023-08-06T06:56:37;16.90;99.90
62555;DHT22;48610;52.144;8.624;2023-08-06T06:59:38;17.10;99.90
62555;DHT22;48610;52.144;8.624;2023-08-06T07:02:38;17.40;99.90
62555;DHT22;48610;52.144;8.624;2023-08-06T07:05:39;17.30;99.90
62555;DHT22;48610;52.144;8.624;2023-08-06T07:08:40;17.30;99.90
62555;DHT22;48610;52.144;8.624;2023-08-06T07:11:41;17.40;99.90
62555;DHT22;48610;52.144;8.624;2023-08-06T07:14:44;17.40;99.90
62555;DHT22;48610;52.144;8.624;2023-08-06T07:17:44;17.40;99.90
62555;DHT22;48610;52.144;8.624;2023-08-06T07:20:49;17.50;99.90
62555;DHT22;48610;52.144;8.624;2023-08-06T07:23:50;17.70;99.90
62555;DHT22;48610;52.144;8.624;2023-08-06T07:26:50;17.60;99.90
62555;DHT22;48610;52.144;8.624;2023-08-06T07:29:53;17.80;99.90
62555;DHT22;48610;52.144;8.624;2023-08-06T07:32:53;17.60;99.90
62555;DHT22;48610;52.144;8.624;2023-08-06T07:35:54;17.60;99.90
62555;DHT22;48610;52.144;8.624;2023-08-06T07:38:54;17.50;99.90
62555;DHT22;48610;52.144;8.624;2023-08-06T07:41:57;17.80;99.90
62555;DHT22;48610;52.144;8.624;2023-08-06T07:44:58;18.00;99.90
62555;DHT22;48610;52.144;8.624;2023-08-06T07:47:59;18.10;99.90
62555;DHT22;48610;52.144;8.624;2023-08-06T07:51:00;18.30;99.90
62555;DHT22;48610;52.144;8.624;2023-08-06T07:54:00;18.10;99.90
62555;DHT22;48610;52.144;8.624;2023-08-06T07:57:01;18.30;99.90
62555;DHT22;48610;52.144;8.624;2023-08-06T08:00:02;18.50;99.90
62555;DHT22;48610;52.144;8.624;2023-08-06T08:03:02;18.50;99.90
62555;DHT22;48610;52.144;8.624;2023-08-06T08:06:04;18.40;99.90
62555;DHT22;48610;52.144;8.624;2023-08-06T08:09:05;18.10;99.90
62555;DHT22;48610;52.144;8.624;2023-08-06T08:12:05;18.10;99.90
62555;DHT22;48610;52.144;8.624;2023-08-06T08:15:06;18.20;99.90
62555;DHT22;48610;52.144;8.624;2023-08-06T08:18:07;18.30;99.90
62555;DHT22;48610;52.144;8.624;2023-08-06T08:21:08;18.30;99.90
62555;DHT22;48610;52.144;8.624;2023-08-06T08:24:09;18.40;99.90
62555;DHT22;48610;52.144;8.624;2023-08-06T08:27:09;18.50;99.90
62555;DHT22;48610;52.144;8.624;2023-08-06T08:30:10;18.90;99.90
62555;DHT22;48610;52.144;8.624;2023-08-06T08:33:11;18.90;99.90
62555;DHT22;48610;52.144;8.624;2023-08-06T08:36:11;19.20;99.90
62555;DHT22;48610;52.144;8.624;2023-08-06T08:39:12;19.40;99.90
62555;DHT22;48610;52.144;8.624;2023-08-06T08:42:13;19.30;99.90
62555;DHT22;48610;52.144;8.624;2023-08-06T08:45:14;19.40;99.90
62555;DHT22;48610;52.144;8.624;2023-08-06T08:48:16;19.40;99.90
62555;DHT22;48610;52.144;8.624;2023-08-06T08:51:18;19.40;99.90
62555;DHT22;48610;52.144;8.624;2023-08-06T08:54:20;19.40;99.90
62555;DHT22;48610;52.144;8.624;2023-08-06T08:57:23;19.30;99.90
62555;DHT22;48610;52.144;8.624;2023-08-06T09:00:24;19.40;99.90
62555;DHT22;48610;52.144;8.624;2023-08-06T09:03:26;19.20;99.90
62555;DHT22;48610;52.144;8.624;2023-08-06T09:06:27;19.10;99.90
62555;DHT22;48610;52.144;8.624;2023-08-06T09:09:32;19.00;99.90
62555;DHT22;48610;52.144;8.624;2023-08-06T09:12:34;19.10;99.90
62555;DHT22;48610;52.144;8.624;2023-08-06T09:15:34;19.00;99.90
62555;DHT22;48610;52.144;8.624;2023-08-06T09:18:39;18.80;99.90
62555;DHT22;48610;52.144;8.624;2023-08-06T09:21:40;18.90;99.90
62555;DHT22;48610;52.144;8.624;2023-08-06T09:24:41;19.00;99.90
62555;DHT22;48610;52.144;8.624;2023-08-06T09:27:46;19.00;99.90
62555;DHT22;48610;52.144;8.624;2023-08-06T09:30:48;19.10;99.90
62555;DHT22;48610;52.144;8.624;2023-08-06T09:33:48;19.20;99.90
62555;DHT22;48610;52.144;8.624;2023-08-06T09:36:51;19.10;99.90
62555;DHT22;48610;52.144;8.624;2023-08-06T09:39:52;19.10;99.90
62555;DHT22;48610;52.144;8.624;2023-08-06T09:42:54;19.20;99.90
62555;DHT22;48610;52.144;8.624;2023-08-06T09:45:55;19.30;99.90
62555;DHT22;48610;52.144;8.624;2023-08-06T09:48:55;19.50;99.90
62555;DHT22;48610;52.144;8.624;2023-08-06T09:51:57;19.50;99.90
62555;DHT22;48610;52.144;8.624;2023-08-06T09:54:58;19.30;99.90
62555;DHT22;48610;52.144;8.624;2023-08-06T09:58:00;19.20;99.90
62555;DHT22;48610;52.144;8.624;2023-08-06T10:01:01;19.10;99.90
62555;DHT22;48610;52.144;8.624;2023-08-06T10:04:05;19.20;99.90
62555;DHT22;48610;52.144;8.624;2023-08-06T10:07:12;19.20;99.90
62555;DHT22;48610;52.144;8.624;2023-08-06T10:10:13;19.30;99.90
62555;DHT22;48610;52.144;8.624;2023-08-06T10:13:13;19.30;99.90
62555;DHT22;48610;52.144;8.624;2023-08-06T10:16:15;19.30;99.90
62555;DHT22;48610;52.144;8.624;2023-08-06T10:19:16;19.20;99.90
62555;DHT22;48610;52.144;8.624;2023-08-06T10:22:18;19.20;99.90
62555;DHT22;48610;52.144;8.624;2023-08-06T10:25:19;19.20;99.90
62555;DHT22;48610;52.144;8.624;2023-08-06T10:28:20;19.30;99.90
62555;DHT22;48610;52.144;8.624;2023-08-06T10:31:52;19.70;99.90
62555;DHT22;48610;52.144;8.624;2023-08-06T10:37:58;21.20;99.90
62555;DHT22;48610;52.144;8.624;2023-08-06T10:44:06;21.60;99.90
62555;DHT22;48610;52.144;8.624;2023-08-06T10:47:28;21.50;99.90
62555;DHT22;48610;52.144;8.624;2023-08-06T10:50:29;21.80;99.90
62555;DHT22;48610;52.144;8.624;2023-08-06T10:53:31;21.30;99.90
62555;DHT22;48610;52.144;8.624;2023-08-06T10:56:39;20.80;99.90
62555;DHT22;48610;52.144;8.624;2023-08-06T10:59:40;20.60;99.90
62555;DHT22;48610;52.144;8.624;2023-08-06T11:02:41;20.60;99.90
62555;DHT22;48610;52.144;8.624;2023-08-06T11:05:48;20.60;99.90
62555;DHT22;48610;52.144;8.624;2023-08-06T11:08:53;20.50;99.90
62555;DHT22;48610;52.144;8.624;2023-08-06T11:11:54;20.50;99.90
62555;DHT22;48610;52.144;8.624;2023-08-06T11:14:55;20.70;99.90
62555;DHT22;48610;52.144;8.624;2023-08-06T11:17:56;20.80;99.90
62555;DHT22;48610;52.144;8.624;2023-08-06T11:20:59;20.90;99.90
62555;DHT22;48610;52.144;8.624;2023-08-06T11:24:00;21.50;99.90
62555;DHT22;48610;52.144;8.624;2023-08-06T11:27:00;22.00;99.90
62555;DHT22;48610;52.144;8.624;2023-08-06T11:30:01;22.10;99.90
62555;DHT22;48610;52.144;8.624;2023-08-06T11:33:02;22.40;99.90
62555;DHT22;48610;52.144;8.624;2023-08-06T11:36:03;21.70;99.90
62555;DHT22;48610;52.144;8.624;2023-08-06T11:39:04;21.50;99.90
62555;DHT22;48610;52.144;8.624;2023-08-06T11:42:06;21.50;99.90
62555;DHT22;48610;52.144;8.624;2023-08-06T11:45:07;21.30;99.90
62555;DHT22;48610;52.144;8.624;2023-08-06T11:48:09;21.20;99.90
62555;DHT22;48610;52.144;8.624;2023-08-06T11:51:12;21.00;99.90
62555;DHT22;48610;52.144;8.624;2023-08-06T11:54:15;21.00;99.90
62555;DHT22;48610;52.144;8.624;2023-08-06T11:57:16;20.90;99.90
62555;DHT22;48610;52.144;8.624;2023-08-06T12:00:17;20.80;99.90
62555;DHT22;48610;52.144;8.624;2023-08-06T12:03:19;21.00;99.90
62555;DHT22;48610;52.144;8.624;2023-08-06T12:06:20;21.10;99.90
62555;DHT22;48610;52.144;8.624;2023-08-06T12:09:21;21.30;99.90
62555;DHT22;48610;52.144;8.624;2023-08-06T12:12:22;21.70;99.90
62555;DHT22;48610;52.144;8.624;2023-08-06T12:15:23;21.80;99.90
62555;DHT22;48610;52.144;8.624;2023-08-06T12:18:24;21.90;99.90
62555;DHT22;48610;52.144;8.624;2023-08-06T12:21:24;22.00;99.90
62555;DHT22;48610;52.144;8.624;2023-08-06T12:24:25;22.10;99.90
62555;DHT22;48610;52.144;8.624;2023-08-06T12:27:26;21.80;99.90
62555;DHT22;48610;52.144;8.624;2023-08-06T12:30:26;21.90;99.90
62555;DHT22;48610;52.144;8.624;2023-08-06T12:33:27;22.00;99.90
62555;DHT22;48610;52.144;8.624;2023-08-06T12:36:27;22.10;99.90
62555;DHT22;48610;52.144;8.624;2023-08-06T12:39:28;22.30;99.90
62555;DHT22;48610;52.144;8.624;2023-08-06T12:42:29;22.10;99.90
62555;DHT22;48610;52.144;8.624;2023-08-06T12:45:29;22.00;99.90
62555;DHT22;48610;52.144;8.624;2023-08-06T12:48:30;22.10;99.90
62555;DHT22;48610;52.144;8.624;2023-08-06T12:51:31;21.90;99.90
62555;DHT22;48610;52.144;8.624;2023-08-06T12:54:34;22.00;99.90
62555;DHT22;48610;52.144;8.624;2023-08-06T12:57:37;21.60;99.90
62555;DHT22;48610;52.144;8.624;2023-08-06T13:00:37;21.50;99.90
62555;DHT22;48610;52.144;8.624;2023-08-06T13:03:38;21.40;99.90
62555;DHT22;48610;52.144;8.624;2023-08-06T13:06:39;21.30;99.90
62555;DHT22;48610;52.144;8.624;2023-08-06T13:09:40;21.20;99.90
62555;DHT22;48610;52.144;8.624;2023-08-06T13:12:41;21.20;99.90
62555;DHT22;48610;52.144;8.624;2023-08-06T13:15:41;21.40;99.90
62555;DHT22;48610;52.144;8.624;2023-08-06T13:18:42;21.70;99.90
62555;DHT22;48610;52.144;8.624;2023-08-06T13:24:50;21.70;99.90
62555;DHT22;48610;52.144;8.624;2023-08-06T13:27:51;21.60;99.90
62555;DHT22;48610;52.144;8.624;2023-08-06T13:30:51;21.40;99.90
62555;DHT22;48610;52.144;8.624;2023-08-06T13:33:53;21.40;99.90
62555;DHT22;48610;52.144;8.624;2023-08-06T13:36:55;21.40;99.90
62555;DHT22;48610;52.144;8.624;2023-08-06T13:39:56;21.40;99.90
62555;DHT22;48610;52.144;8.624;2023-08-06T13:42:57;21.20;99.90
62555;DHT22;48610;52.144;8.624;2023-08-06T13:45:57;21.00;99.90
62555;DHT22;48610;52.144;8.624;2023-08-06T13:48:58;20.90;99.90
62555;DHT22;48610;52.144;8.624;2023-08-06T13:51:59;20.70;99.90
62555;DHT22;48610;52.144;8.624;2023-08-06T13:54:59;20.70;99.90
62555;DHT22;48610;52.144;8.624;2023-08-06T13:58:00;20.60;99.90
62555;DHT22;48610;52.144;8.624;2023-08-06T14:01:00;20.70;99.90
62555;DHT22;48610;52.144;8.624;2023-08-06T14:04:01;20.80;99.90
62555;DHT22;48610;52.144;8.624;2023-08-06T14:07:01;21.20;99.90
62555;DHT22;48610;52.144;8.624;2023-08-06T14:10:03;21.30;99.90
62555;DHT22;48610;52.144;8.624;2023-08-06T14:13:03;21.20;99.90
62555;DHT22;48610;52.144;8.624;2023-08-06T14:16:04;21.30;99.90
62555;DHT22;48610;52.144;8.624;2023-08-06T14:19:04;21.10;99.90
62555;DHT22;48610;52.144;8.624;2023-08-06T14:22:05;20.50;99.90
62555;DHT22;48610;52.144;8.624;2023-08-06T14:25:06;20.00;99.90
62555;DHT22;48610;52.144;8.624;2023-08-06T14:28:07;19.80;99.90
62555;DHT22;48610;52.144;8.624;2023-08-06T14:31:07;19.60;99.90
62555;DHT22;48610;52.144;8.624;2023-08-06T14:34:08;19.50;99.90
62555;DHT22;48610;52.144;8.624;2023-08-06T14:37:09;19.50;99.90
62555;DHT22;48610;52.144;8.624;2023-08-06T14:40:10;19.60;99.90
62555;DHT22;48610;52.144;8.624;2023-08-06T14:43:11;19.70;99.90
62555;DHT22;48610;52.144;8.624;2023-08-06T14:46:11;19.70;99.90
62555;DHT22;48610;52.144;8.624;2023-08-06T14:49:12;19.40;99.90
62555;DHT22;48610;52.144;8.624;2023-08-06T14:52:12;19.40;99.90
62555;DHT22;48610;52.144;8.624;2023-08-06T14:55:22;19.40;99.90
62555;DHT22;48610;52.144;8.624;2023-08-06T14:58:24;19.30;99.90
62555;DHT22;48610;52.144;8.624;2023-08-06T15:01:24;18.60;99.90
62555;DHT22;48610;52.144;8.624;2023-08-06T15:04:25;18.40;99.90
62555;DHT22;48610;52.144;8.624;2023-08-06T15:07:26;18.30;99.90
62555;DHT22;48610;52.144;8.624;2023-08-06T15:10:28;18.10;99.90
62555;DHT22;48610;52.144;8.624;2023-08-06T15:13:29;17.90;99.90
62555;DHT22;48610;52.144;8.624;2023-08-06T15:16:30;17.70;99.90
62555;DHT22;48610;52.144;8.624;2023-08-06T15:19:31;17.30;99.90
62555;DHT22;48610;52.144;8.624;2023-08-06T15:22:31;17.20;99.90
62555;DHT22;48610;52.144;8.624;2023-08-06T15:25:33;17.00;99.90
62555;DHT22;48610;52.144;8.624;2023-08-06T15:28:33;17.00;99.90
62555;DHT22;48610;52.144;8.624;2023-08-06T15:31:38;16.90;99.90
62555;DHT22;48610;52.144;8.624;2023-08-06T15:34:39;16.60;99.90
62555;DHT22;48610;52.144;8.624;2023-08-06T15:37:40;16.70;99.90
62555;DHT22;48610;52.144;8.624;2023-08-06T15:40:41;16.80;99.90
62555;DHT22;48610;52.144;8.624;2023-08-06T15:43:41;16.70;99.90
62555;DHT22;48610;52.144;8.624;2023-08-06T15:46:42;16.40;99.90
62555;DHT22;48610;52.144;8.624;2023-08-06T15:49:43;16.60;99.90
62555;DHT22;48610;52.144;8.624;2023-08-06T15:52:43;16.70;99.90
62555;DHT22;48610;52.144;8.624;2023-08-06T15:55:46;16.90;99.90
62555;DHT22;48610;52.144;8.624;2023-08-06T15:58:46;17.20;99.90
62555;DHT22;48610;52.144;8.624;2023-08-06T16:01:47;17.10;99.90
62555;DHT22;48610;52.144;8.624;2023-08-06T16:04:48;17.10;99.90
62555;DHT22;48610;52.144;8.624;2023-08-06T16:07:51;17.10;99.90
62555;DHT22;48610;52.144;8.624;2023-08-06T16:10:52;17.20;99.90
62555;DHT22;48610;52.144;8.624;2023-08-06T16:13:53;17.30;99.90
62555;DHT22;48610;52.144;8.624;2023-08-06T16:16:53;17.40;99.90
62555;DHT22;48610;52.144;8.624;2023-08-06T16:19:54;17.10;99.90
62555;DHT22;48610;52.144;8.624;2023-08-06T16:22:55;16.80;99.90
62555;DHT22;48610;52.144;8.624;2023-08-06T16:25:56;17.00;99.90
62555;DHT22;48610;52.144;8.624;2023-08-06T16:28:57;16.60;99.90
62555;DHT22;48610;52.144;8.624;2023-08-06T16:31:57;16.70;99.90
62555;DHT22;48610;52.144;8.624;2023-08-06T16:35:00;16.70;99.90
62555;DHT22;48610;52.144;8.624;2023-08-06T16:38:01;16.60;99.90
62555;DHT22;48610;52.144;8.624;2023-08-06T16:41:03;16.70;99.90
62555;DHT22;48610;52.144;8.624;2023-08-06T16:44:04;16.30;99.90
62555;DHT22;48610;52.144;8.624;2023-08-06T16:47:12;16.10;99.90
62555;DHT22;48610;52.144;8.624;2023-08-06T16:50:13;15.80;99.90
62555;DHT22;48610;52.144;8.624;2023-08-06T16:53:13;15.70;99.90
62555;DHT22;48610;52.144;8.624;2023-08-06T16:56:14;15.80;99.90
62555;DHT22;48610;52.144;8.624;2023-08-06T16:59:15;15.90;99.90
62555;DHT22;48610;52.144;8.624;2023-08-06T17:02:15;15.90;99.90
62555;DHT22;48610;52.144;8.624;2023-08-06T17:05:16;16.10;99.90
62555;DHT22;48610;52.144;8.624;2023-08-06T17:08:17;16.10;99.90
62555;DHT22;48610;52.144;8.624;2023-08-06T17:11:17;15.90;99.90
62555;DHT22;48610;52.144;8.624;2023-08-06T17:14:18;15.90;99.90
62555;DHT22;48610;52.144;8.624;2023-08-06T17:17:18;15.80;99.90
62555;DHT22;48610;52.144;8.624;2023-08-06T17:20:19;15.90;99.90
62555;DHT22;48610;52.144;8.624;2023-08-06T17:23:20;15.80;99.90
62555;DHT22;48610;52.144;8.624;2023-08-06T17:26:20;15.70;99.90
62555;DHT22;48610;52.144;8.624;2023-08-06T17:29:21;15.60;99.90
62555;DHT22;48610;52.144;8.624;2023-08-06T17:32:22;15.70;99.90
62555;DHT22;48610;52.144;8.624;2023-08-06T17:35:22;15.60;99.90
62555;DHT22;48610;52.144;8.624;2023-08-06T17:38:23;15.60;99.90
62555;DHT22;48610;52.144;8.624;2023-08-06T17:41:23;15.50;99.90
62555;DHT22;48610;52.144;8.624;2023-08-06T17:44:24;15.50;99.90
62555;DHT22;48610;52.144;8.624;2023-08-06T17:47:26;15.30;99.90
62555;DHT22;48610;52.144;8.624;2023-08-06T17:50:27;15.40;99.90
62555;DHT22;48610;52.144;8.624;2023-08-06T17:53:27;15.50;99.90
62555;DHT22;48610;52.144;8.624;2023-08-06T17:56:28;15.60;99.90
62555;DHT22;48610;52.144;8.624;2023-08-06T17:59:28;15.60;99.90
62555;DHT22;48610;52.144;8.624;2023-08-06T18:02:29;15.70;99.90
62555;DHT22;48610;52.144;8.624;2023-08-06T18:05:30;15.80;99.90
62555;DHT22;48610;52.144;8.624;2023-08-06T18:08:33;15.90;99.90
62555;DHT22;48610;52.144;8.624;2023-08-06T18:11:33;15.80;99.90
62555;DHT22;48610;52.144;8.624;2023-08-06T18:14:34;15.70;99.90
62555;DHT22;48610;52.144;8.624;2023-08-06T18:17:35;15.80;99.90
62555;DHT22;48610;52.144;8.624;2023-08-06T18:20:36;15.90;99.90
62555;DHT22;48610;52.144;8.624;2023-08-06T18:23:36;16.00;99.90
62555;DHT22;48610;52.144;8.624;2023-08-06T18:26:38;16.10;99.90
62555;DHT22;48610;52.144;8.624;2023-08-06T18:29:38;16.20;99.90
62555;DHT22;48610;52.144;8.624;2023-08-06T18:32:39;16.20;99.90
62555;DHT22;48610;52.144;8.624;2023-08-06T18:35:41;16.00;99.90
62555;DHT22;48610;52.144;8.624;2023-08-06T18:38:42;15.90;99.90
62555;DHT22;48610;52.144;8.624;2023-08-06T18:41:43;15.70;99.90
62555;DHT22;48610;52.144;8.624;2023-08-06T18:44:45;15.70;99.90
62555;DHT22;48610;52.144;8.624;2023-08-06T18:47:46;15.30;99.90
62555;DHT22;48610;52.144;8.624;2023-08-06T18:50:47;15.30;99.90
62555;DHT22;48610;52.144;8.624;2023-08-06T18:53:47;15.20;99.90
62555;DHT22;48610;52.144;8.624;2023-08-06T18:56:48;15.30;99.90
62555;DHT22;48610;52.144;8.624;2023-08-06T18:59:48;15.30;99.90
62555;DHT22;48610;52.144;8.624;2023-08-06T19:02:49;15.30;99.90
62555;DHT22;48610;52.144;8.624;2023-08-06T19:05:50;15.30;99.90
62555;DHT22;48610;52.144;8.624;2023-08-06T19:08:51;15.40;99.90
62555;DHT22;48610;52.144;8.624;2023-08-06T19:11:51;15.60;99.90
62555;DHT22;48610;52.144;8.624;2023-08-06T19:14:52;15.80;99.90
62555;DHT22;48610;52.144;8.624;2023-08-06T19:17:53;15.90;99.90
62555;DHT22;48610;52.144;8.624;2023-08-06T19:20:55;16.00;99.90
62555;DHT22;48610;52.144;8.624;2023-08-06T19:23:57;15.90;99.90
62555;DHT22;48610;52.144;8.624;2023-08-06T19:26:58;16.00;99.90
62555;DHT22;48610;52.144;8.624;2023-08-06T19:29:58;16.00;99.90
62555;DHT22;48610;52.144;8.624;2023-08-06T19:32:59;16.10;99.90
62555;DHT22;48610;52.144;8.624;2023-08-06T19:35:59;16.20;99.90
62555;DHT22;48610;52.144;8.624;2023-08-06T19:39:00;16.30;99.90
62555;DHT22;48610;52.144;8.624;2023-08-06T19:42:01;16.40;99.90
62555;DHT22;48610;52.144;8.624;2023-08-06T19:45:01;16.20;99.90
62555;DHT22;48610;52.144;8.624;2023-08-06T19:48:05;16.20;99.90
62555;DHT22;48610;52.144;8.624;2023-08-06T19:51:06;16.20;99.90
62555;DHT22;48610;52.144;8.624;2023-08-06T19:54:07;16.20;99.90
62555;DHT22;48610;52.144;8.624;2023-08-06T19:57:07;16.20;99.90
62555;DHT22;48610;52.144;8.624;2023-08-06T20:00:08;16.20;99.90
62555;DHT22;48610;52.144;8.624;2023-08-06T20:03:09;16.30;99.90
62555;DHT22;48610;52.144;8.624;2023-08-06T20:06:10;16.10;99.90
62555;DHT22;48610;52.144;8.624;2023-08-06T20:09:11;16.20;99.90
62555;DHT22;48610;52.144;8.624;2023-08-06T20:12:12;16.20;99.90
62555;DHT22;48610;52.144;8.624;2023-08-06T20:15:13;16.20;99.90
62555;DHT22;48610;52.144;8.624;2023-08-06T20:18:13;16.20;99.90
62555;DHT22;48610;52.144;8.624;2023-08-06T20:21:15;16.20;99.90
62555;DHT22;48610;52.144;8.624;2023-08-06T20:24:16;16.10;99.90
62555;DHT22;48610;52.144;8.624;2023-08-06T20:27:17;15.90;99.90
62555;DHT22;48610;52.144;8.624;2023-08-06T20:30:17;15.90;99.90
62555;DHT22;48610;52.144;8.624;2023-08-06T20:33:18;15.90;99.90
62555;DHT22;48610;52.144;8.624;2023-08-06T20:36:19;15.90;99.90
62555;DHT22;48610;52.144;8.624;2023-08-06T20:39:19;15.90;99.90
62555;DHT22;48610;52.144;8.624;2023-08-06T20:42:20;15.80;99.90
62555;DHT22;48610;52.144;8.624;2023-08-06T20:45:20;15.80;99.90
62555;DHT22;48610;52.144;8.624;2023-08-06T20:48:22;15.90;99.90
62555;DHT22;48610;52.144;8.624;2023-08-06T20:51:22;15.80;99.90
62555;DHT22;48610;52.144;8.624;2023-08-06T20:54:23;15.90;99.90
62555;DHT22;48610;52.144;8.624;2023-08-06T20:57:23;15.80;99.90
62555;DHT22;48610;52.144;8.624;2023-08-06T21:00:24;15.80;99.90
62555;DHT22;48610;52.144;8.624;2023-08-06T21:03:26;15.70;99.90
62555;DHT22;48610;52.144;8.624;2023-08-06T21:06:27;15.70;99.90
62555;DHT22;48610;52.144;8.624;2023-08-06T21:09:27;15.50;99.90
62555;DHT22;48610;52.144;8.624;2023-08-06T21:12:28;15.60;99.90
62555;DHT22;48610;52.144;8.624;2023-08-06T21:15:28;15.60;99.90
62555;DHT22;48610;52.144;8.624;2023-08-06T21:18:30;15.50;99.90
62555;DHT22;48610;52.144;8.624;2023-08-06T21:21:32;15.60;99.90
62555;DHT22;48610;52.144;8.624;2023-08-06T21:24:33;15.70;99.90
62555;DHT22;48610;52.144;8.624;2023-08-06T21:27:33;15.70;99.90
62555;DHT22;48610;52.144;8.624;2023-08-06T21:30:34;15.60;99.90
62555;DHT22;48610;52.144;8.624;2023-08-06T21:33:35;15.60;99.90
62555;DHT22;48610;52.144;8.624;2023-08-06T21:36:36;15.60;99.90
62555;DHT22;48610;52.144;8.624;2023-08-06T21:39:37;15.60;99.90
62555;DHT22;48610;52.144;8.624;2023-08-06T21:42:37;15.60;99.90
62555;DHT22;48610;52.144;8.624;2023-08-06T21:45:38;15.60;99.90
62555;DHT22;48610;52.144;8.624;2023-08-06T21:48:42;15.50;99.90
62555;DHT22;48610;52.144;8.624;2023-08-06T21:51:44;15.50;99.90
62555;DHT22;48610;52.144;8.624;2023-08-06T21:54:45;15.40;99.90
62555;DHT22;48610;52.144;8.624;2023-08-06T21:57:48;15.40;99.90
62555;DHT22;48610;52.144;8.624;2023-08-06T22:00:49;15.40;99.90
62555;DHT22;48610;52.144;8.624;2023-08-06T22:03:50;15.40;99.90
62555;DHT22;48610;52.144;8.624;2023-08-06T22:06:50;15.50;99.90
62555;DHT22;48610;52.144;8.624;2023-08-06T22:09:51;15.50;99.90
62555;DHT22;48610;52.144;8.624;2023-08-06T22:12:52;15.30;99.90
62555;DHT22;48610;52.144;8.624;2023-08-06T22:15:52;15.40;99.90
62555;DHT22;48610;52.144;8.624;2023-08-06T22:18:53;15.30;99.90
62555;DHT22;48610;52.144;8.624;2023-08-06T22:21:54;15.30;99.90
62555;DHT22;48610;52.144;8.624;2023-08-06T22:24:54;15.30;99.90
62555;DHT22;48610;52.144;8.624;2023-08-06T22:27:56;15.20;99.90
62555;DHT22;48610;52.144;8.624;2023-08-06T22:30:56;15.20;99.90
62555;DHT22;48610;52.144;8.624;2023-08-06T22:33:57;15.20;99.90
62555;DHT22;48610;52.144;8.624;2023-08-06T22:36:57;15.30;99.90
62555;DHT22;48610;52.144;8.624;2023-08-06T22:39:58;15.20;99.90
62555;DHT22;48610;52.144;8.624;2023-08-06T22:42:59;15.30;99.90
62555;DHT22;48610;52.144;8.624;2023-08-06T22:46:00;15.20;99.90
62555;DHT22;48610;52.144;8.624;2023-08-06T22:49:00;15.20;99.90
62555;DHT22;48610;52.144;8.624;2023-08-06T22:52:01;15.30;99.90
62555;DHT22;48610;52.144;8.624;2023-08-06T22:55:02;15.30;99.90
62555;DHT22;48610;52.144;8.624;2023-08-06T22:58:03;15.20;99.90
62555;DHT22;48610;52.144;8.624;2023-08-06T23:01:03;15.20;99.90
62555;DHT22;48610;52.144;8.624;2023-08-06T23:04:04;15.10;99.90
62555;DHT22;48610;52.144;8.624;2023-08-06T23:07:05;15.10;99.90
62555;DHT22;48610;52.144;8.624;2023-08-06T23:10:06;15.10;99.90
62555;DHT22;48610;52.144;8.624;2023-08-06T23:13:07;15.20;99.90
62555;DHT22;48610;52.144;8.624;2023-08-06T23:16:08;15.10;99.90
62555;DHT22;48610;52.144;8.624;2023-08-06T23:19:08;15.10;99.90
62555;DHT22;48610;52.144;8.624;2023-08-06T23:22:09;15.10;99.90
62555;DHT22;48610;52.144;8.624;2023-08-06T23:25:09;15.10;99.90
62555;DHT22;48610;52.144;8.624;2023-08-06T23:28:10;15.10;99.90
62555;DHT22;48610;52.144;8.624;2023-08-06T23:31:14;15.00;99.90
62555;DHT22;48610;52.144;8.624;2023-08-06T23:34:14;15.00;99.90
62555;DHT22;48610;52.144;8.624;2023-08-06T23:37:15;15.10;99.90
62555;DHT22;48610;52.144;8.624;2023-08-06T23:40:15;15.10;99.90
62555;DHT22;48610;52.144;8.624;2023-08-06T23:43:16;15.10;99.90
62555;DHT22;48610;52.144;8.624;2023-08-06T23:46:17;15.00;99.90
62555;DHT22;48610;52.144;8.624;2023-08-06T23:49:18;15.10;99.90
62555;DHT22;48610;52.144;8.624;2023-08-06T23:52:19;15.20;99.90
62555;DHT22;48610;52.144;8.624;2023-08-06T23:55:19;15.10;99.90
62555;DHT22;48610;52.144;8.624;2023-08-06T23:58:20;15.10;99.90
